Terminal Aerodrome Forecast
Issued by NWS

Home | Current Version | Previous Version | Text Only | Print | Product List | Glossary On
Versions: 1 2 3 4 5 6 7 8 9 10 11 12 13 14 15 16
670
FTUS42 KTBW 222330
TAFPGD
TAF
KPGD 222330Z 2300/2324 VRB05KT P6SM VCSH BKN040 BKN200
     FM230200 07005KT P6SM FEW020 SCT040 BKN200
     FM230900 11004KT 4SM BR BKN010 BKN150
     FM231400 15006KT P6SM VCSH SCT025 BKN150
     FM231700 23009KT P6SM VCSH SCT035 BKN100=

USA.gov is the U.S. government's official web portal to all federal, state and local government web resources and services.